Time;durP1;ratioP1;P1;durP2;ratioP2;P2;SDS_P1;SDS_P2;PMS_P1;PMS_P2;Temp;Humidity;BMP_temperature;BMP_pressure;BME280_temperature;BME280_humidity;BME280_pressure;Samples;Min_cycle;Max_cycle;Signal;HPM_P1;HPM_P2
2022/03/15 00:01:12;;;;;;;10.55;5.07;;;;;;;10.33;61.69;102903.91;4960540;28;20081;-57
2022/03/15 00:03:38;;;;;;;13.43;5.47;;;;;;;10.32;61.04;102897.81;4953986;28;20108;-56
2022/03/15 00:06:04;;;;;;;13.20;4.80;;;;;;;10.29;61.14;102895.06;4958648;28;20077;-52
2022/03/15 00:08:30;;;;;;;10.57;4.72;;;;;;;10.28;60.92;102893.28;4947338;28;20085;-57
2022/03/15 00:11:02;;;;;;;12.23;4.90;;;;;;;10.22;61.03;102897.31;4960887;28;20050;-55
2022/03/15 00:13:29;;;;;;;11.77;4.65;;;;;;;10.13;61.11;102885.59;4950869;28;20054;-56
2022/03/15 00:16:01;;;;;;;14.77;4.55;;;;;;;10.10;61.35;102887.16;4959572;28;20342;-54
2022/03/15 00:18:30;;;;;;;13.43;4.60;;;;;;;10.06;61.61;102882.66;4951453;28;20042;-55
2022/03/15 00:20:56;;;;;;;13.10;4.50;;;;;;;10.05;61.10;102883.47;4952431;28;20057;-51
2022/03/15 00:23:22;;;;;;;9.75;4.55;;;;;;;10.00;61.06;102880.59;4961228;28;20038;-54
2022/03/15 00:25:47;;;;;;;13.07;4.97;;;;;;;9.92;61.27;102878.47;4958857;28;20086;-56
2022/03/15 00:28:13;;;;;;;12.98;4.45;;;;;;;9.85;61.83;102879.00;4963062;28;20160;-55
2022/03/15 00:30:39;;;;;;;12.13;4.45;;;;;;;9.79;61.29;102871.78;4956260;28;20397;-54
2022/03/15 00:33:05;;;;;;;9.15;4.20;;;;;;;9.73;61.70;102876.69;4935637;28;20611;-54
2022/03/15 00:35:31;;;;;;;10.65;4.10;;;;;;;9.71;61.71;102880.94;4940104;28;20065;-55
2022/03/15 00:37:56;;;;;;;8.80;4.00;;;;;;;9.68;61.59;102876.47;4960240;28;20058;-54
2022/03/15 00:40:23;;;;;;;12.35;3.60;;;;;;;9.64;61.90;102878.84;4952573;28;20410;-51
2022/03/15 00:42:52;;;;;;;13.07;4.30;;;;;;;9.58;62.13;102879.44;4962074;28;20069;-54
2022/03/15 00:45:24;;;;;;;10.15;4.15;;;;;;;9.47;62.69;102865.00;4951914;28;20512;-54
2022/03/15 00:47:53;;;;;;;13.98;4.22;;;;;;;9.44;62.79;102872.69;4954043;28;20169;-51
2022/03/15 00:50:20;;;;;;;12.73;4.43;;;;;;;9.44;62.85;102867.47;4952907;28;20498;-54
2022/03/15 00:52:46;;;;;;;13.02;4.53;;;;;;;9.44;63.26;102862.25;4962079;28;20053;-55
2022/03/15 00:55:11;;;;;;;12.00;4.18;;;;;;;9.48;62.98;102858.97;4957354;28;20046;-55
2022/03/15 00:57:37;;;;;;;12.27;4.50;;;;;;;9.48;62.98;102865.91;4955469;28;20054;-55
2022/03/15 01:00:07;;;;;;;10.57;4.43;;;;;;;9.51;62.89;102866.06;4955735;28;20494;-52
2022/03/15 01:02:32;;;;;;;13.68;4.47;;;;;;;9.57;62.95;102867.25;4951594;28;20324;-55
2022/03/15 01:04:58;;;;;;;11.38;4.38;;;;;;;9.62;62.85;102867.47;4957025;28;20093;-56
2022/03/15 01:07:23;;;;;;;14.80;5.05;;;;;;;9.62;62.36;102867.47;4962328;28;20270;-56
2022/03/15 01:09:48;;;;;;;14.35;4.82;;;;;;;9.61;62.33;102861.38;4957510;28;20078;-54
2022/03/15 01:12:15;;;;;;;10.70;4.97;;;;;;;9.61;62.85;102855.25;4940483;28;20046;-54
2022/03/15 01:14:45;;;;;;;13.25;5.03;;;;;;;9.66;62.36;102856.38;4939803;28;20038;-55
2022/03/15 01:17:10;;;;;;;19.92;6.25;;;;;;;9.65;63.04;102854.59;4957606;28;20045;-56
2022/03/15 01:19:36;;;;;;;14.65;6.28;;;;;;;9.67;63.13;102851.25;4956609;28;20050;-53
2022/03/15 01:22:01;;;;;;;19.55;6.85;;;;;;;9.73;63.80;102845.44;4952587;28;21422;-55
2022/03/15 01:24:27;;;;;;;18.13;7.18;;;;;;;9.79;63.42;102845.72;4952840;28;20038;-54
2022/03/15 01:26:54;;;;;;;18.77;7.65;;;;;;;9.85;63.65;102833.00;4952570;28;20077;-57
2022/03/15 01:29:20;;;;;;;19.48;7.88;;;;;;;9.92;63.34;102844.59;4961226;28;20049;-55
2022/03/15 01:31:47;;;;;;;21.23;8.20;;;;;;;9.91;63.60;102833.28;4951683;28;20050;-54
2022/03/15 01:34:12;;;;;;;16.90;8.23;;;;;;;9.91;63.39;102833.28;4963010;28;20039;-54
2022/03/15 01:36:38;;;;;;;17.05;7.72;;;;;;;9.98;63.29;102827.56;4940779;28;21253;-52
2022/03/15 01:39:04;;;;;;;18.98;7.75;;;;;;;9.93;63.24;102821.25;4959902;28;20507;-55
2022/03/15 01:41:35;;;;;;;20.05;8.82;;;;;;;9.93;63.53;102821.25;4963314;28;20046;-52
2022/03/15 01:44:01;;;;;;;19.75;8.98;;;;;;;9.91;63.06;102833.28;4966718;28;20498;-54
2022/03/15 01:46:26;;;;;;;21.45;8.40;;;;;;;9.93;63.74;102823.84;4955935;28;20165;-54
2022/03/15 01:48:52;;;;;;;20.85;8.85;;;;;;;9.98;63.40;102826.66;4962315;28;20050;-55
2022/03/15 01:51:18;;;;;;;20.20;8.35;;;;;;;9.98;63.50;102821.44;4945587;28;20050;-56
2022/03/15 01:53:43;;;;;;;21.73;8.75;;;;;;;10.01;63.71;102818.97;4959168;28;20137;-55
2022/03/15 01:56:09;;;;;;;19.15;8.43;;;;;;;10.08;63.33;102821.94;4962178;28;20650;-55
2022/03/15 01:58:34;;;;;;;18.48;8.73;;;;;;;10.06;63.59;102820.97;4957173;28;20116;-52
2022/03/15 02:01:00;;;;;;;19.80;9.05;;;;;;;10.06;63.46;102810.53;4966344;28;20815;-53
2022/03/15 02:03:26;;;;;;;21.27;9.82;;;;;;;10.07;63.04;102817.53;4959196;28;20042;-56
2022/03/15 02:05:51;;;;;;;20.35;10.07;;;;;;;10.10;63.43;102812.50;4966906;28;20034;-54
2022/03/15 02:08:17;;;;;;;22.70;10.45;;;;;;;10.19;63.15;102814.63;4955366;28;20406;-55
2022/03/15 02:10:43;;;;;;;25.88;12.00;;;;;;;10.24;63.04;102807.94;4959090;28;20050;-54
2022/03/15 02:13:10;;;;;;;31.15;13.45;;;;;;;10.28;63.08;102806.34;4961753;28;20054;-53
2022/03/15 02:15:36;;;;;;;27.88;13.45;;;;;;;10.27;63.15;102801.97;4962365;28;20500;-54
2022/03/15 02:18:03;;;;;;;35.20;13.85;;;;;;;10.30;62.90;102799.50;4962098;28;20403;-56
2022/03/15 02:20:29;;;;;;;31.48;14.13;;;;;;;10.33;63.09;102792.69;4953259;28;20157;-55
2022/03/15 02:22:54;;;;;;;28.45;14.35;;;;;;;10.36;63.20;102795.47;4961911;28;20375;-54
2022/03/15 02:25:20;;;;;;;30.08;13.45;;;;;;;10.45;62.17;102784.53;4961954;28;20050;-55
2022/03/15 02:27:45;;;;;;;28.42;12.75;;;;;;;10.38;62.36;102790.28;4961819;28;20042;-51
2022/03/15 02:30:12;;;;;;;26.17;12.45;;;;;;;10.33;63.14;102790.09;4966633;28;20397;-54
2022/03/15 02:32:42;;;;;;;27.20;12.10;;;;;;;10.35;62.83;102790.16;4946167;28;20050;-56
2022/03/15 02:35:08;;;;;;;28.08;11.75;;;;;;;10.36;62.75;102792.84;4962365;28;20469;-55
2022/03/15 02:37:34;;;;;;;22.98;11.20;;;;;;;10.36;62.46;102790.25;4960341;28;20042;-53
2022/03/15 02:40:00;;;;;;;22.27;11.20;;;;;;;10.33;62.66;102782.28;4957872;28;20975;-55
2022/03/15 02:42:25;;;;;;;21.67;10.30;;;;;;;10.32;62.34;102784.81;4951948;28;20058;-53
2022/03/15 02:44:50;;;;;;;22.75;10.75;;;;;;;10.29;62.65;102776.88;4957064;28;20039;-54
2022/03/15 02:47:16;;;;;;;23.58;10.60;;;;;;;10.24;62.76;102774.06;4959471;28;20042;-54
2022/03/15 02:49:41;;;;;;;21.95;10.48;;;;;;;10.24;62.71;102770.56;4961707;28;20056;-55
2022/03/15 02:52:09;;;;;;;24.48;11.65;;;;;;;10.20;62.75;102772.13;4958300;28;20045;-60
2022/03/15 02:54:37;;;;;;;22.27;10.77;;;;;;;10.21;62.46;102766.09;4955295;28;20343;-55
2022/03/15 02:57:03;;;;;;;27.88;11.52;;;;;;;10.11;62.90;102763.88;4955046;28;20062;-53
2022/03/15 02:59:28;;;;;;;23.92;12.90;;;;;;;10.03;63.80;102762.63;4960511;28;20137;-55
2022/03/15 03:01:54;;;;;;;24.70;11.35;;;;;;;10.06;63.06;102760.16;4963543;28;20046;-56
2022/03/15 03:04:21;;;;;;;25.35;12.07;;;;;;;10.01;63.76;102764.25;4946594;28;20477;-56
2022/03/15 03:06:46;;;;;;;32.22;12.27;;;;;;;10.01;63.31;102766.84;4960708;28;20046;-55
2022/03/15 03:09:12;;;;;;;26.88;12.13;;;;;;;9.96;63.28;102769.25;4958792;28;20442;-54
2022/03/15 03:11:38;;;;;;;20.83;11.07;;;;;;;9.93;63.43;102768.25;4961533;28;20049;-57
2022/03/15 03:14:04;;;;;;;23.92;11.93;;;;;;;9.88;63.92;102769.75;4961307;28;20046;-54
2022/03/15 03:16:30;;;;;;;31.33;12.68;;;;;;;9.86;64.22;102772.28;4950753;28;20685;-54
2022/03/15 03:18:58;;;;;;;32.80;14.43;;;;;;;9.81;64.81;102765.97;4962376;28;20051;-51
2022/03/15 03:21:27;;;;;;;28.95;14.82;;;;;;;9.90;64.76;102761.16;4953294;28;20572;-55
2022/03/15 03:23:53;;;;;;;29.63;14.35;;;;;;;9.87;64.84;102763.63;4963999;28;20058;-54
2022/03/15 03:26:23;;;;;;;32.00;13.98;;;;;;;9.96;64.80;102756.22;4953024;28;20046;-54
2022/03/15 03:28:50;;;;;;;30.95;13.85;;;;;;;9.99;64.35;102756.38;4960984;28;20042;-54
2022/03/15 03:31:16;;;;;;;28.40;14.07;;;;;;;10.04;64.17;102770.50;4955247;28;20489;-51
2022/03/15 03:33:42;;;;;;;25.90;13.25;;;;;;;9.98;64.28;102764.13;4961856;28;20080;-52
2022/03/15 03:36:09;;;;;;;24.67;13.00;;;;;;;9.94;64.33;102757.88;4958591;28;20133;-55
2022/03/15 03:38:36;;;;;;;26.92;13.70;;;;;;;9.94;64.24;102755.25;4954807;28;20781;-55
2022/03/15 03:41:03;;;;;;;29.25;13.25;;;;;;;9.95;64.72;102756.16;4963288;28;20077;-55
2022/03/15 03:43:29;;;;;;;26.58;13.35;;;;;;;9.91;64.84;102749.91;4961224;28;20522;-54
2022/03/15 03:45:54;;;;;;;29.55;13.60;;;;;;;9.97;64.73;102747.59;4961206;28;20034;-55
2022/03/15 03:48:20;;;;;;;34.92;14.13;;;;;;;9.99;64.42;102743.34;4954160;28;20466;-55
2022/03/15 03:50:45;;;;;;;28.02;13.57;;;;;;;10.02;64.57;102750.41;4958305;28;20050;-54
2022/03/15 03:53:11;;;;;;;24.92;13.52;;;;;;;9.97;64.39;102751.91;4955760;28;20052;-53
2022/03/15 03:55:36;;;;;;;26.27;13.90;;;;;;;10.00;64.16;102750.31;4958775;28;20038;-52
2022/03/15 03:58:02;;;;;;;32.78;15.00;;;;;;;10.01;64.61;102749.50;4955449;28;20085;-51
2022/03/15 04:00:29;;;;;;;30.70;14.10;;;;;;;10.03;64.54;102749.59;4953550;28;20050;-55
2022/03/15 04:03:00;;;;;;;30.42;13.75;;;;;;;10.03;64.13;102747.88;4963174;28;20058;-56
2022/03/15 04:05:25;;;;;;;30.30;13.73;;;;;;;10.01;64.37;102759.03;4960535;28;20062;-54
2022/03/15 04:07:51;;;;;;;27.85;14.25;;;;;;;10.00;64.13;102752.06;4950820;28;20478;-54
2022/03/15 04:10:18;;;;;;;28.83;14.57;;;;;;;9.99;64.41;102753.78;4932871;28;20040;-56
2022/03/15 04:12:44;;;;;;;29.05;14.77;;;;;;;9.95;64.49;102746.63;4959711;28;20672;-53
2022/03/15 04:15:10;;;;;;;27.75;13.93;;;;;;;9.97;64.23;102751.91;4959634;28;20050;-54
2022/03/15 04:17:36;;;;;;;26.90;14.38;;;;;;;9.99;64.54;102750.28;4958196;28;20065;-55
2022/03/15 04:20:03;;;;;;;31.90;14.98;;;;;;;10.01;64.50;102746.91;4955561;28;20518;-51
2022/03/15 04:22:28;;;;;;;27.48;14.38;;;;;;;10.02;64.16;102755.63;4950227;28;20054;-55
2022/03/15 04:24:54;;;;;;;28.38;15.13;;;;;;;9.99;64.24;102745.06;4961284;28;20724;-56
2022/03/15 04:27:19;;;;;;;32.05;14.90;;;;;;;10.01;64.25;102740.78;4961412;28;20044;-52
2022/03/15 04:29:44;;;;;;;29.88;14.30;;;;;;;10.05;64.08;102742.75;4959522;28;20412;-52
2022/03/15 04:32:10;;;;;;;28.45;15.18;;;;;;;10.03;64.28;102742.66;4953642;28;20508;-53
2022/03/15 04:34:35;;;;;;;28.60;15.55;;;;;;;10.03;64.05;102740.06;4949812;28;20066;-53
2022/03/15 04:37:00;;;;;;;32.67;15.55;;;;;;;10.02;64.24;102745.19;4960796;28;20915;-53
2022/03/15 04:39:26;;;;;;;30.95;14.35;;;;;;;10.06;64.06;102739.31;4962842;28;20054;-52
2022/03/15 04:41:51;;;;;;;31.95;16.00;;;;;;;10.04;64.42;102740.94;4962946;28;20046;-54
2022/03/15 04:44:17;;;;;;;26.80;14.75;;;;;;;10.02;64.58;102740.88;4944295;28;20050;-56
2022/03/15 04:46:43;;;;;;;27.33;14.95;;;;;;;10.01;64.43;102738.19;4954326;28;20125;-54
2022/03/15 04:49:08;;;;;;;30.33;14.18;;;;;;;10.00;64.64;102734.69;4960048;28;20045;-54
2022/03/15 04:51:34;;;;;;;31.33;15.55;;;;;;;9.98;65.03;102735.47;4955311;28;20061;-54
2022/03/15 04:53:59;;;;;;;32.50;16.20;;;;;;;9.92;65.06;102728.25;4955086;28;20145;-53
2022/03/15 04:56:25;;;;;;;31.27;16.02;;;;;;;9.94;65.22;102734.41;4952285;28;20093;-55
2022/03/15 04:58:51;;;;;;;32.78;15.60;;;;;;;9.86;65.42;102729.69;4955098;28;20521;-55
2022/03/15 05:01:16;;;;;;;31.40;15.82;;;;;;;9.92;65.03;102727.38;4960522;28;20521;-54
2022/03/15 05:03:42;;;;;;;28.20;15.45;;;;;;;9.89;64.89;102715.09;4955954;28;20026;-54
2022/03/15 05:06:07;;;;;;;30.92;15.07;;;;;;;9.90;65.12;102716.88;4957835;28;20046;-53
2022/03/15 05:08:32;;;;;;;29.40;15.73;;;;;;;9.86;64.73;102711.47;4954654;28;20581;-51
2022/03/15 05:11:06;;;;;;;28.98;15.85;;;;;;;9.87;65.12;102706.31;4962672;28;20581;-55
2022/03/15 05:13:40;;;;;;;30.13;15.90;;;;;;;9.86;65.02;102703.66;4958347;28;20603;-54
2022/03/15 05:16:18;;;;;;;32.20;16.50;;;;;;;9.82;65.30;102704.34;4952533;28;20489;-54
2022/03/15 05:18:50;;;;;;;32.33;15.63;;;;;;;9.87;64.99;102695.91;4957082;28;20043;-55
2022/03/15 05:21:16;;;;;;;29.35;15.25;;;;;;;9.90;64.77;102692.53;4952472;28;20106;-54
2022/03/15 05:23:43;;;;;;;32.53;16.05;;;;;;;9.85;65.25;102696.66;4964687;28;20053;-53
2022/03/15 05:26:09;;;;;;;30.73;16.23;;;;;;;9.85;65.17;102694.03;4960007;28;20184;-52
2022/03/15 05:28:35;;;;;;;33.10;16.10;;;;;;;9.83;65.06;102699.16;4936767;28;20399;-54
2022/03/15 05:31:00;;;;;;;31.52;16.17;;;;;;;9.84;65.23;102698.34;4960422;28;20042;-51
2022/03/15 05:33:28;;;;;;;32.63;16.67;;;;;;;9.87;65.43;102689.81;4965113;28;20047;-54
2022/03/15 05:35:53;;;;;;;31.58;16.80;;;;;;;9.84;65.15;102690.53;4963577;28;20125;-55
2022/03/15 05:38:19;;;;;;;30.90;16.65;;;;;;;9.81;65.17;102687.81;4956110;28;20693;-58
2022/03/15 05:40:44;;;;;;;33.00;16.70;;;;;;;9.84;65.52;102687.94;4960890;28;20046;-52
2022/03/15 05:43:10;;;;;;;39.45;18.42;;;;;;;9.83;65.23;102678.34;4957734;28;20381;-53
2022/03/15 05:45:35;;;;;;;39.38;18.55;;;;;;;9.81;65.79;102682.59;4970051;28;20054;-56
2022/03/15 05:48:00;;;;;;;37.33;18.42;;;;;;;9.83;65.46;102683.53;4957727;28;20140;-56
2022/03/15 05:50:26;;;;;;;35.22;18.38;;;;;;;9.89;65.04;102686.44;4957788;28;20038;-56
2022/03/15 05:52:51;;;;;;;34.95;18.15;;;;;;;9.87;65.55;102681.97;4966223;28;20118;-53
2022/03/15 05:55:17;;;;;;;35.85;18.17;;;;;;;9.83;65.55;102680.03;4961611;28;20631;-53
2022/03/15 05:57:42;;;;;;;33.97;18.92;;;;;;;9.83;65.56;102672.22;4961978;28;20050;-55
2022/03/15 06:00:10;;;;;;;36.22;17.73;;;;;;;9.90;65.61;102667.38;4960055;28;20124;-52
2022/03/15 06:02:36;;;;;;;38.72;19.45;;;;;;;9.84;65.54;102668.81;4954462;28;20097;-53
2022/03/15 06:05:03;;;;;;;36.90;18.45;;;;;;;9.88;65.57;102660.31;4964827;28;20633;-55
2022/03/15 06:07:29;;;;;;;39.35;20.10;;;;;;;9.86;65.73;102659.34;4965732;28;20525;-54
2022/03/15 06:09:55;;;;;;;41.97;19.63;;;;;;;9.85;65.50;102665.38;4961734;28;20401;-55
2022/03/15 06:12:20;;;;;;;40.20;19.58;;;;;;;9.82;65.68;102668.72;4954956;28;20062;-51
2022/03/15 06:14:46;;;;;;;40.83;19.95;;;;;;;9.81;65.81;102668.69;4946136;28;20050;-54
2022/03/15 06:17:12;;;;;;;37.55;20.05;;;;;;;9.81;66.08;102669.59;4959152;28;20034;-52
2022/03/15 06:19:37;;;;;;;44.72;20.00;;;;;;;9.84;65.96;102661.88;4964945;28;20061;-56
2022/03/15 06:22:03;;;;;;;36.78;20.00;;;;;;;9.80;66.27;102664.28;4949838;28;20386;-54
2022/03/15 06:24:29;;;;;;;40.78;19.58;;;;;;;9.82;66.03;102670.47;4956094;28;20050;-54
2022/03/15 06:26:55;;;;;;;41.17;19.75;;;;;;;9.83;66.10;102674.84;4961153;28;20042;-53
2022/03/15 06:29:20;;;;;;;40.30;19.92;;;;;;;9.85;66.25;102661.06;4964747;28;20561;-53
2022/03/15 06:31:46;;;;;;;35.15;18.42;;;;;;;9.94;65.77;102671.88;4959004;28;20057;-52
2022/03/15 06:34:12;;;;;;;37.25;19.60;;;;;;;9.96;65.41;102674.56;4956626;28;20121;-53
2022/03/15 06:36:37;;;;;;;40.80;20.15;;;;;;;9.95;65.87;102667.56;4923210;28;20217;-55
2022/03/15 06:39:05;;;;;;;34.85;19.52;;;;;;;10.01;65.73;102670.44;4956310;28;20062;-52
2022/03/15 06:41:30;;;;;;;44.08;19.88;;;;;;;9.92;65.77;102659.63;4963313;28;20046;-53
2022/03/15 06:43:56;;;;;;;42.00;21.02;;;;;;;9.90;65.85;102661.25;4966304;28;20048;-53
2022/03/15 06:46:22;;;;;;;39.47;20.00;;;;;;;9.95;66.06;102654.53;4956431;28;20046;-53
2022/03/15 06:48:48;;;;;;;34.38;19.85;;;;;;;10.02;65.67;102649.66;4962762;28;20589;-55
2022/03/15 06:51:13;;;;;;;41.03;19.70;;;;;;;10.12;65.33;102656.19;4960968;28;20038;-55
2022/03/15 06:53:38;;;;;;;37.78;19.27;;;;;;;10.15;64.96;102648.50;4963384;28;20179;-55
2022/03/15 06:56:04;;;;;;;37.70;19.58;;;;;;;10.22;64.94;102645.38;4967707;28;20049;-53
2022/03/15 06:58:29;;;;;;;36.05;19.33;;;;;;;10.34;64.45;102652.81;4952579;28;20443;-56
2022/03/15 07:00:55;;;;;;;39.95;19.80;;;;;;;10.44;64.42;102641.94;4961606;28;20474;-54
2022/03/15 07:03:21;;;;;;;35.75;19.63;;;;;;;10.49;64.16;102641.31;4958133;28;20100;-55
2022/03/15 07:05:46;;;;;;;36.80;19.15;;;;;;;10.57;63.79;102647.72;4966298;28;20050;-54
2022/03/15 07:08:12;;;;;;;33.97;18.70;;;;;;;10.57;63.72;102646.84;4956145;28;20042;-52
2022/03/15 07:10:37;;;;;;;43.97;19.70;;;;;;;10.57;63.91;102646.84;4955223;28;20218;-53
2022/03/15 07:13:02;;;;;;;38.60;18.50;;;;;;;10.58;63.89;102643.41;4962593;28;20633;-52
2022/03/15 07:15:28;;;;;;;35.00;18.08;;;;;;;10.67;63.55;102643.81;4961853;28;20058;-55
2022/03/15 07:17:57;;;;;;;36.28;17.63;;;;;;;10.70;62.86;102649.13;4964202;28;20076;-55
2022/03/15 07:20:24;;;;;;;34.88;17.75;;;;;;;10.78;62.64;102642.53;4954906;28;20457;-57
2022/03/15 07:22:50;;;;;;;36.38;18.65;;;;;;;10.79;62.35;102640.81;4956625;28;20076;-55
2022/03/15 07:25:16;;;;;;;33.38;17.98;;;;;;;10.83;61.72;102637.47;4960523;28;20062;-58
2022/03/15 07:27:42;;;;;;;38.20;18.33;;;;;;;10.84;61.81;102632.34;4962524;28;21263;-55
2022/03/15 07:30:08;;;;;;;38.13;17.05;;;;;;;10.91;60.71;102636.06;4957907;28;20045;-53
2022/03/15 07:32:33;;;;;;;32.08;16.63;;;;;;;10.88;60.08;102635.94;4949931;28;20399;-54
2022/03/15 07:34:59;;;;;;;38.63;17.10;;;;;;;11.10;59.83;102635.09;4961999;28;20409;-56
2022/03/15 07:37:25;;;;;;;29.70;15.23;;;;;;;11.14;59.99;102636.97;4960478;28;20042;-52
2022/03/15 07:39:50;;;;;;;33.05;16.70;;;;;;;11.19;59.78;102633.72;4964762;28;20063;-53
2022/03/15 07:42:16;;;;;;;30.02;16.25;;;;;;;11.25;59.70;102640.88;4960968;28;20209;-55
2022/03/15 07:44:42;;;;;;;34.72;16.55;;;;;;;11.31;59.18;102647.25;4950263;28;20493;-54
2022/03/15 07:47:08;;;;;;;31.38;16.52;;;;;;;11.42;58.98;102646.75;4957807;28;20042;-58
2022/03/15 07:49:34;;;;;;;35.88;17.02;;;;;;;11.40;58.76;102644.09;4954771;28;20046;-56
2022/03/15 07:51:59;;;;;;;35.17;17.83;;;;;;;11.38;58.45;102646.66;4957099;28;20050;-54
2022/03/15 07:54:25;;;;;;;38.30;17.35;;;;;;;11.34;58.77;102636.91;4948860;28;20549;-55
2022/03/15 07:56:51;;;;;;;34.90;17.77;;;;;;;11.22;58.95;102639.03;4962243;28;20045;-54
2022/03/15 07:59:16;;;;;;;32.50;16.88;;;;;;;11.36;59.07;102630.03;4960294;28;20070;-56
2022/03/15 08:01:41;;;;;;;40.92;17.77;;;;;;;11.45;58.76;102634.72;4960088;28;20072;-55
2022/03/15 08:04:06;;;;;;;33.97;17.30;;;;;;;11.56;58.05;102628.16;4964952;28;21553;-56
2022/03/15 08:06:35;;;;;;;30.27;17.13;;;;;;;11.77;57.96;102625.50;4953205;28;20798;-57
2022/03/15 08:09:00;;;;;;;38.03;18.33;;;;;;;11.67;58.20;102628.56;4964859;28;20125;-56
2022/03/15 08:11:26;;;;;;;35.22;16.88;;;;;;;11.72;57.39;102621.78;4957971;28;20034;-58
2022/03/15 08:13:53;;;;;;;36.95;16.88;;;;;;;11.95;57.09;102628.78;4959379;28;20072;-54
2022/03/15 08:16:19;;;;;;;33.38;16.67;;;;;;;12.10;56.53;102631.91;4959442;28;20038;-55
2022/03/15 08:18:44;;;;;;;34.53;17.20;;;;;;;12.17;56.62;102633.91;4948773;28;20065;-56
2022/03/15 08:21:10;;;;;;;32.50;17.50;;;;;;;12.32;56.11;102636.13;4957769;28;20049;-56
2022/03/15 08:23:36;;;;;;;32.35;17.65;;;;;;;12.30;56.36;102642.19;4956824;28;20081;-55
2022/03/15 08:26:02;;;;;;;34.08;18.55;;;;;;;12.18;56.12;102648.75;4961257;28;20038;-56
2022/03/15 08:28:27;;;;;;;33.45;18.10;;;;;;;12.19;55.98;102647.03;4946100;28;20469;-56
2022/03/15 08:30:53;;;;;;;33.38;18.73;;;;;;;12.14;56.28;102648.59;4963845;28;20046;-56
2022/03/15 08:33:19;;;;;;;35.40;18.92;;;;;;;12.20;56.46;102639.22;4963432;28;20513;-55
2022/03/15 08:35:44;;;;;;;40.85;19.33;;;;;;;12.26;56.25;102642.91;4955271;28;20457;-56
2022/03/15 08:38:11;;;;;;;35.63;18.67;;;;;;;12.40;55.67;102639.91;4962694;28;20081;-56
2022/03/15 08:40:37;;;;;;;36.85;18.75;;;;;;;12.42;55.46;102640.88;4955227;28;21931;-55
2022/03/15 08:43:03;;;;;;;35.78;18.55;;;;;;;12.47;55.25;102639.28;4955075;28;20100;-56
2022/03/15 08:45:29;;;;;;;35.90;18.85;;;;;;;12.69;54.69;102637.38;4958146;28;20046;-56
2022/03/15 08:47:54;;;;;;;42.33;18.90;;;;;;;12.65;54.92;102631.16;4942792;28;20038;-56
2022/03/15 08:50:20;;;;;;;35.78;18.35;;;;;;;12.80;54.18;102629.06;4945544;28;20397;-57
2022/03/15 08:52:47;;;;;;;36.63;18.63;;;;;;;12.91;54.37;102632.91;4959264;28;20054;-56
2022/03/15 08:55:13;;;;;;;36.03;17.83;;;;;;;13.19;53.29;102639.00;4954365;28;20124;-55
2022/03/15 08:57:38;;;;;;;32.47;17.23;;;;;;;13.17;53.45;102628.50;4942364;28;20050;-55
2022/03/15 09:00:05;;;;;;;32.40;17.02;;;;;;;13.23;51.99;102627.81;4954806;28;20077;-55
2022/03/15 09:02:31;;;;;;;29.02;16.33;;;;;;;13.27;52.01;102624.44;4941458;28;20043;-55
2022/03/15 09:04:56;;;;;;;30.10;16.48;;;;;;;13.34;52.44;102626.41;4957870;28;20030;-55
2022/03/15 09:07:21;;;;;;;31.40;17.33;;;;;;;13.39;51.65;102625.69;4956239;28;20069;-55
2022/03/15 09:09:47;;;;;;;31.95;17.02;;;;;;;13.48;51.71;102625.06;4966494;28;20041;-56
2022/03/15 09:12:13;;;;;;;31.67;17.25;;;;;;;13.59;52.26;102621.03;4952009;28;20045;-53
2022/03/15 09:14:38;;;;;;;33.88;16.30;;;;;;;13.79;51.70;102618.94;4936089;28;20369;-56
2022/03/15 09:17:05;;;;;;;26.92;14.57;;;;;;;13.86;51.11;102627.88;4943473;28;20039;-59
2022/03/15 09:19:30;;;;;;;28.75;15.15;;;;;;;13.88;51.08;102623.56;4961014;28;20050;-56
2022/03/15 09:21:56;;;;;;;32.65;16.50;;;;;;;13.45;51.23;102629.31;4956886;28;20571;-56
2022/03/15 09:24:21;;;;;;;30.48;16.95;;;;;;;13.50;51.65;102619.88;4931777;28;20516;-59
2022/03/15 09:26:46;;;;;;;32.08;17.25;;;;;;;13.46;51.78;102620.63;4958624;28;20057;-56
2022/03/15 09:29:12;;;;;;;30.17;17.40;;;;;;;13.60;51.81;102614.94;4960391;28;20120;-57
2022/03/15 09:31:38;;;;;;;31.00;18.60;;;;;;;13.47;53.05;102623.31;4957794;28;20042;-57
2022/03/15 09:34:03;;;;;;;31.85;17.95;;;;;;;13.14;53.44;102615.31;4957246;28;20125;-56
2022/03/15 09:36:29;;;;;;;32.33;18.30;;;;;;;12.85;53.36;102614.38;4951754;28;20038;-56
2022/03/15 09:38:55;;;;;;;34.15;18.88;;;;;;;12.87;53.93;102611.78;4960201;28;20498;-55
2022/03/15 09:41:24;;;;;;;34.60;19.00;;;;;;;12.72;54.58;102606.09;4965762;28;20125;-56
2022/03/15 09:43:53;;;;;;;34.40;19.42;;;;;;;12.82;53.94;102606.41;4957918;28;20434;-56
2022/03/15 09:46:22;;;;;;;36.15;18.70;;;;;;;12.79;54.21;102600.22;4952690;28;20567;-59
2022/03/15 09:48:52;;;;;;;30.88;17.23;;;;;;;12.85;54.55;102597.78;4962951;28;20077;-58
2022/03/15 09:51:18;;;;;;;32.70;18.23;;;;;;;12.89;54.45;102594.41;4955011;28;20153;-57
2022/03/15 09:53:46;;;;;;;32.25;17.92;;;;;;;12.98;54.23;102582.50;4960179;28;20042;-55
2022/03/15 09:56:16;;;;;;;31.77;17.85;;;;;;;13.38;53.35;102578.47;4963563;28;20042;-54
2022/03/15 09:58:44;;;;;;;33.15;18.23;;;;;;;13.49;53.23;102574.44;4956731;28;20053;-56
2022/03/15 10:01:17;;;;;;;30.73;17.48;;;;;;;13.42;52.86;102575.09;4958252;28;20345;-56
2022/03/15 10:03:43;;;;;;;31.65;17.40;;;;;;;13.59;52.66;102575.59;4962485;28;20046;-57
2022/03/15 10:06:08;;;;;;;28.48;16.05;;;;;;;13.93;52.16;102564.28;4964498;28;20042;-57
2022/03/15 10:08:35;;;;;;;29.90;16.60;;;;;;;14.13;51.87;102563.97;4945347;28;20667;-55
2022/03/15 10:11:00;;;;;;;31.85;15.68;;;;;;;14.43;50.86;102557.75;4961498;28;20457;-55
2022/03/15 10:13:26;;;;;;;24.67;14.80;;;;;;;14.41;50.31;102555.06;4964523;28;20048;-55
2022/03/15 10:15:56;;;;;;;26.75;15.02;;;;;;;14.64;50.29;102552.97;4965123;28;20523;-55
2022/03/15 10:18:21;;;;;;;28.85;15.63;;;;;;;14.76;49.95;102542.75;4955930;28;20054;-53
2022/03/15 10:20:48;;;;;;;29.75;15.70;;;;;;;14.55;49.91;102542.28;4960904;28;20153;-54
2022/03/15 10:23:16;;;;;;;28.63;15.25;;;;;;;14.59;50.23;102544.13;4962533;28;20053;-54
2022/03/15 10:25:44;;;;;;;30.88;14.93;;;;;;;14.77;49.91;102544.53;4957131;28;20101;-54
2022/03/15 10:28:10;;;;;;;24.55;14.02;;;;;;;14.60;49.04;102546.78;4960898;28;20575;-54
2022/03/15 10:30:37;;;;;;;23.65;14.30;;;;;;;14.31;49.66;102539.03;4955032;28;20587;-54
2022/03/15 10:33:03;;;;;;;25.58;13.93;;;;;;;14.20;50.19;102536.16;4949459;28;20054;-54
2022/03/15 10:35:35;;;;;;;31.45;14.90;;;;;;;14.41;50.35;102530.56;4951710;28;20084;-51
2022/03/15 10:38:03;;;;;;;25.05;13.63;;;;;;;14.63;49.21;102532.88;4962192;28;20116;-55
2022/03/15 10:40:40;;;;;;;23.58;13.20;;;;;;;14.50;48.64;102529.06;4953544;28;20387;-54
2022/03/15 10:43:16;;;;;;;20.80;12.18;;;;;;;14.47;48.35;102534.22;4960580;28;20351;-54
2022/03/15 10:45:45;;;;;;;21.85;12.07;;;;;;;14.48;48.14;102522.00;4953426;28;20622;-52
2022/03/15 10:48:35;;;;;;;22.85;12.43;;;;;;;14.63;47.93;102514.50;4956081;28;20050;-54
2022/03/15 10:51:11;;;;;;;24.38;12.55;;;;;;;14.69;48.24;102521.63;4956116;28;20520;-51
2022/03/15 10:53:46;;;;;;;26.30;12.60;;;;;;;14.70;48.04;102516.38;4953263;28;20216;-55
2022/03/15 10:56:16;;;;;;;19.27;11.32;;;;;;;14.71;47.44;102510.28;4957708;28;20759;-55
2022/03/15 10:58:50;;;;;;;21.05;11.18;;;;;;;14.85;48.01;102505.34;4951918;28;20517;-57
2022/03/15 11:01:16;;;;;;;;;;;;;;;15.04;47.57;102491.75;4960559;28;20264;-51
2022/03/15 11:03:52;;;;;;;18.88;10.88;;;;;;;15.08;47.02;102490.94;4958848;28;19921;-52
2022/03/15 11:06:41;;;;;;;23.88;11.68;;;;;;;15.10;46.14;102483.09;4952492;28;20049;-53
2022/03/15 11:09:24;;;;;;;18.92;11.48;;;;;;;15.25;45.93;102478.13;4966086;28;20472;-55
2022/03/15 11:12:06;;;;;;;18.58;10.00;;;;;;;15.25;46.42;102470.25;4957471;28;20038;-52